.
WxDataArchive / Data Records for 2015-11-05
2015-11-04 November 2015 2015-11-06

Data Records for Thursday, 05 November 2015

Time	Temp	Chill	HIndex	Humid	Dewpt	 Wind 	HiWind	WindDir	Rain 	Barom
-----	----	-----	------	-----	-----	------	------	-------	-----	-----
00:00	58.3	58.3	58.3	92	56.0	0	0	---	0.00	30.079 
00:05	58.3	58.3	58.3	92	56.0	0	0	---	0.00	30.079 
00:10	58.3	58.3	58.3	92	56.0	0	0	---	0.00	30.079 
00:15	58.3	58.3	58.3	91	55.7	0	0	---	0.00	30.078 
00:20	58.1	58.1	58.1	91	55.5	0	0	---	0.00	30.078 
00:25	58.0	58.0	58.0	91	55.4	0	0	---	0.00	30.078 
00:30	58.0	58.0	58.0	91	55.4	0	0	---	0.00	30.077 
00:35	57.8	57.8	57.8	92	55.5	0	0	---	0.00	30.077 
00:40	57.8	57.8	57.8	92	55.5	0	0	---	0.00	30.077 
00:45	57.8	57.8	57.8	92	55.5	0	0	---	0.00	30.075 
00:50	57.8	57.8	57.8	92	55.5	0	0	---	0.00	30.075 
00:55	57.6	57.6	57.6	92	55.3	0	0	---	0.00	30.075 
01:00	57.6	57.6	57.6	92	55.3	0	0	---	0.00	30.075 
01:05	57.8	57.8	57.8	92	55.5	0	0	---	0.00	30.075 
01:10	57.8	57.8	57.8	92	55.5	0	0	---	0.00	30.075 
01:15	57.8	57.8	57.8	92	55.5	0	0	---	0.00	30.073 
01:20	57.8	57.8	57.8	92	55.5	0	0	---	0.00	30.073 
01:25	57.8	57.8	57.8	92	55.5	0	0	---	0.00	30.073 
01:30	58.0	58.0	58.0	92	55.7	0	0	---	0.00	30.070 
01:35	58.1	58.1	58.1	92	55.8	0	0	---	0.00	30.070 
01:40	58.0	58.0	58.0	92	55.7	0	0	---	0.00	30.070 
01:45	58.0	58.0	58.0	92	55.7	0	0	---	0.00	30.070 
01:50	57.8	57.8	57.8	92	55.5	0	0	---	0.00	30.070 
01:55	57.8	57.8	57.8	92	55.5	0	0	---	0.00	30.070 
02:00	57.6	57.6	57.6	92	55.3	0	0	---	0.00	30.071 
02:05	57.5	57.5	57.5	92	55.2	0	0	---	0.00	30.071 
02:10	57.3	57.3	57.3	92	55.0	0	0	---	0.00	30.071 
02:15	57.0	57.0	57.0	92	54.7	0	0	---	0.00	30.075 
02:20	57.0	57.0	57.0	92	54.7	0	0	---	0.00	30.075 
02:25	56.9	56.9	56.9	92	54.6	0	0	---	0.00	30.075 
02:30	56.7	56.7	56.7	92	54.4	0	0	---	0.00	30.074 
02:35	56.7	56.7	56.7	93	54.7	0	0	---	0.00	30.074 
02:40	56.7	56.7	56.7	92	54.4	0	0	---	0.00	30.074 
02:45	56.6	56.6	56.6	92	54.3	0	0	---	0.00	30.074 
02:50	56.5	56.5	56.5	93	54.5	0	0	---	0.00	30.074 
02:55	56.3	56.3	56.3	93	54.3	0	0	---	0.00	30.074 
03:00	56.0	56.0	56.0	93	54.0	0	0	---	0.00	30.077 
03:05	55.9	55.9	55.9	93	53.9	0	0	---	0.00	30.077 
03:10	55.7	55.7	55.7	93	53.7	0	0	---	0.00	30.077 
03:15	55.6	55.6	55.6	93	53.6	0	0	---	0.00	30.076 
03:20	55.4	55.4	55.4	93	53.4	0	0	---	0.00	30.076 
03:25	55.4	55.4	55.4	93	53.4	0	0	---	0.00	30.076 
03:30	55.3	55.3	55.3	93	53.3	0	0	---	0.00	30.075 
03:35	55.4	55.4	55.4	93	53.4	0	0	---	0.00	30.075 
03:40	55.6	55.6	55.6	93	53.6	0	0	---	0.00	30.075 
03:45	55.7	55.7	55.7	93	53.7	0	0	---	0.00	30.075 
03:50	56.0	56.0	56.0	94	54.3	0	0	---	0.00	30.075 
03:55	56.3	56.3	56.3	94	54.6	0	0	---	0.00	30.075 
04:00	56.5	56.5	56.5	94	54.8	0	0	---	0.00	30.068 
04:05	56.6	56.6	56.6	94	54.9	0	0	---	0.00	30.068 
04:10	56.7	56.7	56.7	94	55.0	0	0	---	0.00	30.068 
04:15	57.0	57.0	57.0	94	55.3	0	0	---	0.00	30.070 
04:20	57.2	57.2	57.2	94	55.5	0	0	---	0.00	30.070 
04:25	57.2	57.2	57.2	94	55.5	0	0	---	0.00	30.070 
04:30	57.2	57.2	57.2	94	55.5	0	0	---	0.00	30.070 
04:35	57.2	57.2	57.2	94	55.5	0	0	---	0.00	30.070 
04:40	57.2	57.2	57.2	94	55.5	0	0	---	0.00	30.070 
04:45	57.0	57.0	57.0	94	55.3	0	0	---	0.00	30.069 
04:50	57.0	57.0	57.0	94	55.3	0	0	---	0.00	30.069 
04:55	56.9	56.9	56.9	94	55.2	0	0	---	0.00	30.069 
05:00	56.7	56.7	56.7	94	55.0	0	0	---	0.00	30.072 
05:05	56.5	56.5	56.5	94	54.8	0	0	---	0.00	30.072 
05:10	56.3	56.3	56.3	94	54.6	0	0	---	0.00	30.072 
05:15	56.2	56.2	56.2	94	54.5	0	0	---	0.00	30.080 
05:20	56.2	56.2	56.2	94	54.5	0	0	---	0.00	30.080 
05:25	56.5	56.5	56.5	95	55.1	0	0	---	0.00	30.080 
05:30	56.9	56.9	56.9	95	55.5	0	0	---	0.00	30.080 
05:35	57.3	57.3	57.3	95	55.9	0	0	---	0.00	30.080 
05:40	57.6	57.6	57.6	95	56.2	0	0	---	0.00	30.080 
05:45	58.0	58.0	58.0	95	56.6	0	0	---	0.00	30.077 
05:50	58.3	58.3	58.3	95	56.9	0	0	---	0.00	30.077 
05:55	58.4	58.4	58.4	95	57.0	0	0	---	0.00	30.077 
06:00	58.4	58.4	58.4	95	57.0	0	0	---	0.00	30.076 
06:05	58.4	58.4	58.4	95	57.0	0	0	---	0.00	30.076 
06:10	58.6	58.6	58.6	95	57.2	0	0	---	0.00	30.076 
06:15	58.4	58.4	58.4	95	57.0	0	0	---	0.00	30.080 
06:20	58.4	58.4	58.4	95	57.0	0	0	---	0.00	30.080 
06:25	58.6	58.6	58.6	95	57.2	0	0	---	0.00	30.080 
06:30	58.7	58.7	58.7	95	57.3	0	0	---	0.00	30.078 
06:35	58.7	58.7	58.7	95	57.3	0	0	---	0.00	30.078 
06:40	58.9	58.9	58.9	95	57.5	0	0	---	0.00	30.078 
06:45	58.9	58.9	58.9	95	57.5	0	0	---	0.00	30.079 
06:50	58.9	58.9	58.9	95	57.5	0	0	---	0.00	30.079 
06:55	58.9	58.9	58.9	95	57.5	0	0	---	0.00	30.079 
07:00	59.0	59.0	59.0	95	57.6	0	1	248	0.00	30.081 
07:05	59.2	59.2	59.2	95	57.8	0	0	---	0.00	30.081 
07:10	59.2	59.2	59.2	95	57.8	0	0	---	0.00	30.081 
07:15	59.3	59.3	59.3	95	57.9	0	0	---	0.00	30.084 
07:20	59.5	59.5	59.5	95	58.1	0	0	---	0.00	30.084 
07:25	59.5	59.5	59.5	95	58.1	0	0	---	0.00	30.084 
07:30	59.6	59.6	59.6	95	58.2	0	0	---	0.00	30.089 
07:35	59.8	59.8	59.8	95	58.4	0	1	248	0.00	30.089 
07:40	59.8	59.8	59.8	95	58.4	0	0	---	0.00	30.089 
07:45	59.9	59.9	59.9	95	58.5	0	1	248	0.00	30.094 
07:50	60.1	60.1	60.1	95	58.7	0	0	---	0.00	30.094 
07:55	60.1	60.1	60.1	95	58.7	0	1	248	0.00	30.094 
08:00	60.2	60.2	60.2	95	58.8	0	0	---	0.00	30.099 
08:05	60.4	60.4	60.4	95	59.0	0	0	---	0.00	30.099 
08:10	60.4	60.4	60.4	95	59.0	0	0	---	0.00	30.099 
08:15	60.5	60.5	60.5	94	58.8	0	0	---	0.00	30.099 
08:20	60.5	60.5	60.5	94	58.8	0	0	---	0.00	30.099 
08:25	60.7	60.7	60.7	94	59.0	0	1	248	0.00	30.099 
08:30	60.9	60.9	60.9	94	59.2	0	0	---	0.00	30.098 
08:35	60.9	60.9	60.9	94	59.2	0	1	248	0.00	30.098 
08:40	61.0	61.0	61.0	94	59.3	0	0	---	0.00	30.098 
08:45	61.2	61.2	61.2	94	59.5	0	0	---	0.00	30.100 
08:50	61.2	61.2	61.2	93	59.2	0	0	---	0.00	30.100 
08:55	61.3	61.3	61.3	93	59.3	0	0	---	0.00	30.100 
09:00	61.5	61.5	61.5	93	59.5	0	0	---	0.00	30.103 
09:05	61.5	61.5	61.5	93	59.5	0	0	---	0.00	30.103 
09:10	61.6	61.6	61.6	93	59.6	0	0	---	0.00	30.103 
09:15	61.8	61.8	61.8	93	59.8	0	0	---	0.00	30.101 
09:20	62.0	62.0	62.0	92	59.6	0	0	---	0.00	30.101 
09:25	62.1	62.1	62.1	92	59.7	0	0	---	0.00	30.101 
09:30	62.3	62.3	62.3	92	59.9	0	0	---	0.00	30.101 
09:35	62.4	62.4	62.4	92	60.0	0	1	202	0.00	30.101 
09:40	62.6	62.6	62.6	91	59.9	0	0	---	0.00	30.101 
09:45	62.7	62.7	62.7	91	60.0	0	1	202	0.00	30.101 
09:50	62.7	62.7	62.7	91	60.0	0	1	202	0.00	30.101 
09:55	62.9	62.9	62.9	90	59.9	0	1	202	0.00	30.101 
10:00	63.1	63.1	63.1	90	60.1	0	1	202	0.00	30.101 
10:05	63.2	63.2	63.2	90	60.2	0	1	202	0.00	30.101 
10:10	63.4	63.4	63.4	89	60.1	0	0	---	0.00	30.101 
10:15	63.5	63.5	63.5	89	60.2	0	0	---	0.00	30.094 
10:20	63.7	63.7	63.7	88	60.1	0	0	---	0.00	30.094 
10:25	63.9	63.9	63.9	88	60.3	0	0	---	0.00	30.094 
10:30	64.0	64.0	64.0	88	60.4	0	1	202	0.00	30.089 
10:35	64.2	64.2	64.2	87	60.2	0	1	202	0.00	30.089 
10:40	64.5	64.5	64.5	87	60.5	0	1	202	0.00	30.089 
10:45	64.7	64.7	64.7	87	60.7	0	1	202	0.00	30.083 
10:50	64.8	64.8	64.8	86	60.5	0	2	202	0.00	30.083 
10:55	65.0	65.0	65.0	85	60.4	0	2	202	0.00	30.083 
11:00	65.0	65.0	65.0	85	60.4	0	2	202	0.00	30.081 
11:05	65.2	65.2	65.2	85	60.6	0	2	135	0.00	30.081 
11:10	65.3	65.3	65.3	84	60.3	0	2	135	0.00	30.081 
11:15	65.5	65.5	65.5	84	60.5	0	1	135	0.00	30.076 
11:20	65.6	65.6	65.6	84	60.6	0	2	135	0.00	30.076 
11:25	65.8	65.8	65.8	84	60.8	0	1	135	0.00	30.076 
11:30	66.0	66.0	66.0	84	61.0	0	2	135	0.00	30.066 
11:35	66.1	66.1	66.1	83	60.8	0	2	135	0.00	30.066 
11:40	66.3	66.3	66.3	83	61.0	0	3	112	0.00	30.066 
11:45	66.4	66.4	66.4	83	61.1	0	1	112	0.00	30.059 
11:50	66.8	66.8	66.8	83	61.5	0	1	112	0.00	30.059 
11:55	67.1	67.1	67.1	82	61.4	0	2	112	0.00	30.059 
12:00	67.3	67.3	67.3	82	61.6	0	1	112	0.00	30.053 
12:05	67.4	67.4	67.4	81	61.4	0	2	202	0.00	30.053 
12:10	67.6	67.6	67.6	81	61.6	0	1	202	0.00	30.053 
12:15	67.8	67.8	67.8	80	61.4	0	2	202	0.00	30.043 
12:20	68.1	68.1	68.1	80	61.7	0	2	180	0.00	30.043 
12:25	68.4	68.4	68.4	79	61.6	1	4	90	0.00	30.043 
12:30	68.8	68.8	68.8	78	61.7	0	2	90	0.00	30.035 
12:35	69.1	69.1	69.1	77	61.6	0	2	90	0.00	30.035 
12:40	69.8	69.8	69.8	76	61.9	0	1	90	0.00	30.035 
12:45	70.3	70.3	70.3	74	61.6	0	2	90	0.00	30.027 
12:50	70.8	70.8	70.8	72	61.3	0	3	90	0.00	30.027 
12:55	70.9	70.9	70.9	70	60.6	1	4	248	0.00	30.027 
13:00	70.9	70.9	70.9	72	61.4	0	3	248	0.00	30.023 
13:05	71.3	71.3	71.3	71	61.4	1	3	112	0.00	30.023 
13:10	71.6	71.6	71.6	69	60.9	0	3	112	0.00	30.023 
13:15	72.0	72.0	72.0	68	60.8	1	3	248	0.00	30.007 
13:20	72.1	72.1	72.1	65	59.7	0	3	248	0.00	30.007 
13:25	72.1	72.1	72.1	64	59.2	1	3	248	0.00	30.007 
13:30	72.5	72.5	72.5	65	60.0	1	3	248	0.00	30.009 
13:35	72.3	72.3	72.3	61	58.1	1	5	248	0.00	30.009 
13:40	72.3	72.3	72.3	62	58.5	1	5	270	0.00	30.009 
13:45	72.3	72.3	72.3	61	58.1	1	3	248	0.00	30.008 
13:50	72.3	72.3	72.3	61	58.1	1	5	90	0.00	30.008 
13:55	72.1	72.1	72.1	61	57.9	1	4	315	0.00	30.008 
14:00	72.3	72.3	72.3	61	58.1	1	4	90	0.00	29.980 
14:05	72.5	72.5	72.5	60	57.8	0	2	90	0.00	29.980 
14:10	72.5	72.5	72.5	56	55.9	1	3	270	0.00	29.980 
14:15	72.7	72.7	72.7	53	54.6	1	5	248	0.00	29.978 
14:20	72.7	72.7	72.7	52	54.0	1	5	292	0.00	29.978 
14:25	72.7	72.7	72.7	51	53.5	1	5	248	0.00	29.978 
14:30	72.7	72.7	72.7	52	54.0	1	5	45	0.00	29.982 
14:35	72.7	72.7	72.7	53	54.6	1	2	270	0.00	29.982 
14:40	72.7	72.7	72.7	52	54.0	1	6	248	0.00	29.982 
14:45	72.7	72.7	72.7	52	54.0	1	4	248	0.00	29.981 
14:50	72.5	72.5	72.5	53	54.4	0	3	248	0.00	29.981 
14:55	72.5	72.5	72.5	53	54.4	1	4	248	0.00	29.981 
15:00	72.7	72.7	72.7	54	55.1	1	3	270	0.00	29.973 
15:05	73.0	73.0	73.0	54	55.4	0	3	248	0.00	29.973 
15:10	73.0	73.0	73.0	55	55.9	0	2	248	0.00	29.973 
15:15	72.8	72.8	72.8	55	55.7	0	2	248	0.00	29.964 
15:20	72.7	72.7	72.7	56	56.1	1	3	248	0.00	29.964 
15:25	72.5	72.5	72.5	56	55.9	2	5	248	0.00	29.964 
15:30	72.3	72.3	72.3	56	55.7	1	4	248	0.00	29.963 
15:35	72.1	72.1	72.1	57	56.0	0	1	248	0.00	29.963 
15:40	72.0	72.0	72.0	58	56.4	0	4	248	0.00	29.963 
15:45	71.8	71.8	71.8	58	56.2	1	4	248	0.00	29.951 
15:50	71.6	71.6	71.6	59	56.5	0	1	248	0.00	29.951 
15:55	71.6	71.6	71.6	59	56.5	1	2	248	0.00	29.951 
16:00	71.6	71.6	71.6	59	56.5	0	2	248	0.00	29.949 
16:05	71.6	71.6	71.6	60	57.0	0	2	248	0.00	29.949 
16:10	71.5	71.5	71.5	60	56.9	0	3	248	0.00	29.949 
16:15	71.3	71.3	71.3	60	56.7	0	1	248	0.00	29.941 
16:20	71.1	71.1	71.1	60	56.5	0	3	248	0.00	29.941 
16:25	70.9	70.9	70.9	61	56.8	0	1	248	0.00	29.941 
16:30	70.9	70.9	70.9	61	56.8	0	2	248	0.00	29.942 
16:35	70.8	70.8	70.8	62	57.1	0	2	248	0.00	29.942 
16:40	70.6	70.6	70.6	62	56.9	0	5	248	0.00	29.942 
16:45	70.6	70.6	70.6	62	56.9	0	4	68	0.00	29.939 
16:50	70.4	70.4	70.4	62	56.7	0	2	292	0.00	29.939 
16:55	70.4	70.4	70.4	62	56.7	0	2	315	0.00	29.939 
17:00	70.4	70.4	70.4	62	56.7	1	4	112	0.00	29.938 
17:05	70.3	70.3	70.3	63	57.1	0	2	90	0.00	29.938 
17:10	70.3	70.3	70.3	63	57.1	0	4	90	0.00	29.938 
17:15	70.1	70.1	70.1	63	56.9	0	1	90	0.00	29.933 
17:20	69.9	69.9	69.9	64	57.2	0	1	90	0.00	29.933 
17:25	69.8	69.8	69.8	64	57.1	0	1	90	0.00	29.933 
17:30	69.6	69.6	69.6	65	57.3	0	2	90	0.00	29.930 
17:35	69.4	69.4	69.4	65	57.1	0	1	90	0.00	29.930 
17:40	69.4	69.4	69.4	65	57.1	0	2	135	0.00	29.930 
17:45	69.3	69.3	69.3	65	57.0	0	1	135	0.00	29.933 
17:50	69.1	69.1	69.1	65	56.8	0	2	135	0.00	29.933 
17:55	69.1	69.1	69.1	65	56.8	0	1	135	0.00	29.933 
18:00	68.9	68.9	68.9	65	56.6	0	2	180	0.00	29.937 
18:05	68.9	68.9	68.9	65	56.6	0	3	90	0.00	29.937 
18:10	68.9	68.9	68.9	66	57.1	0	3	135	0.00	29.937 
18:15	68.8	68.8	68.8	66	57.0	0	1	135	0.00	29.940 
18:20	68.6	68.6	68.6	66	56.8	0	2	135	0.00	29.940 
18:25	68.6	68.6	68.6	67	57.2	0	3	225	0.00	29.940 
18:30	68.6	68.6	68.6	68	57.6	0	3	90	0.00	29.939 
18:35	68.4	68.4	68.4	68	57.4	1	3	248	0.00	29.939 
18:40	68.4	68.4	68.4	69	57.8	0	4	248	0.00	29.939 
18:45	68.4	68.4	68.4	69	57.8	0	3	248	0.00	29.938 
18:50	68.3	68.3	68.3	70	58.1	0	3	248	0.00	29.938 
18:55	68.3	68.3	68.3	70	58.1	0	1	248	0.00	29.938 
19:00	68.1	68.1	68.1	71	58.3	0	2	248	0.00	29.938 
19:05	67.9	67.9	67.9	71	58.1	0	2	248	0.00	29.938 
19:10	67.9	67.9	67.9	72	58.5	0	1	248	0.00	29.938 
19:15	67.8	67.8	67.8	73	58.8	0	1	248	0.00	29.933 
19:20	67.6	67.6	67.6	73	58.6	0	1	248	0.00	29.933 
19:25	67.4	67.4	67.4	74	58.8	0	4	248	0.00	29.933 
19:30	67.3	67.3	67.3	75	59.1	0	1	112	0.00	29.929 
19:35	67.1	67.1	67.1	75	58.9	0	1	112	0.00	29.929 
19:40	67.1	67.1	67.1	76	59.3	0	2	225	0.00	29.929 
19:45	66.9	66.9	66.9	76	59.1	0	1	225	0.00	29.919 
19:50	66.8	66.8	66.8	77	59.3	0	1	225	0.00	29.919 
19:55	66.6	66.6	66.6	77	59.2	0	2	225	0.00	29.919 
20:00	66.6	66.6	66.6	78	59.5	0	1	158	0.00	29.911 
20:05	66.4	66.4	66.4	78	59.3	0	1	135	0.00	29.911 
20:10	66.4	66.4	66.4	78	59.3	0	1	135	0.00	29.911 
20:15	66.3	66.3	66.3	79	59.6	0	1	135	0.00	29.905 
20:20	66.1	66.1	66.1	79	59.4	0	1	135	0.00	29.905 
20:25	66.1	66.1	66.1	79	59.4	0	1	135	0.00	29.905 
20:30	66.1	66.1	66.1	80	59.7	0	1	135	0.00	29.901 
20:35	66.0	66.0	66.0	80	59.6	0	4	135	0.00	29.901 
20:40	66.0	66.0	66.0	80	59.6	0	1	112	0.00	29.901 
20:45	66.0	66.0	66.0	80	59.6	0	2	112	0.00	29.898 
20:50	66.0	66.0	66.0	80	59.6	0	2	112	0.00	29.898 
20:55	66.0	66.0	66.0	81	60.0	0	1	112	0.00	29.898 
21:00	66.0	66.0	66.0	81	60.0	0	2	112	0.00	29.889 
21:05	65.8	65.8	65.8	81	59.8	0	1	112	0.00	29.889 
21:10	65.8	65.8	65.8	81	59.8	0	1	112	0.00	29.889 
21:15	65.6	65.6	65.6	82	59.9	0	3	112	0.00	29.885 
21:20	65.6	65.6	65.6	82	59.9	0	1	112	0.00	29.885 
21:25	65.6	65.6	65.6	82	59.9	0	1	112	0.00	29.885 
21:30	65.8	65.8	65.8	82	60.1	0	3	112	0.00	29.881 
21:35	65.8	65.8	65.8	82	60.1	1	3	248	0.00	29.881 
21:40	65.8	65.8	65.8	82	60.1	0	3	248	0.00	29.881 
21:45	65.8	65.8	65.8	83	60.5	0	1	248	0.00	29.869 
21:50	66.0	66.0	66.0	83	60.7	0	3	248	0.00	29.869 
21:55	66.0	66.0	66.0	83	60.7	0	3	248	0.00	29.869 
22:00	65.8	65.8	65.8	84	60.8	0	2	338	0.00	29.857 
22:05	65.8	65.8	65.8	84	60.8	0	3	248	0.00	29.857 
22:10	65.8	65.8	65.8	84	60.8	1	6	68	0.00	29.857 
22:15	65.6	65.6	65.6	85	61.0	0	2	315	0.00	29.854 
22:20	65.6	65.6	65.6	85	61.0	0	3	292	0.00	29.854 
22:25	65.6	65.6	65.6	86	61.3	0	3	68	0.00	29.854 
22:30	65.5	65.5	65.5	87	61.5	0	3	22	0.00	29.849 
22:35	65.3	65.3	65.3	87	61.3	0	3	90	0.01	29.849 
22:40	65.2	65.2	65.2	88	61.6	0	2	90	0.00	29.849 
22:45	65.0	65.0	65.0	88	61.4	0	1	90	0.00	29.848 
22:50	64.8	64.8	64.8	89	61.5	0	1	90	0.00	29.848 
22:55	64.7	64.7	64.7	89	61.4	0	2	90	0.01	29.848 
23:00	64.7	64.7	64.7	89	61.4	0	3	90	0.00	29.846 
23:05	64.5	64.5	64.5	90	61.5	1	4	225	0.01	29.846 
23:10	64.5	64.5	64.5	90	61.5	1	4	248	0.00	29.846 
23:15	64.5	64.5	64.5	90	61.5	1	4	270	0.00	29.845 
23:20	64.3	64.3	64.3	91	61.6	0	2	68	0.00	29.845 
23:25	64.3	64.3	64.3	91	61.6	0	3	68	0.00	29.845 
23:30	64.3	64.3	64.3	91	61.6	0	2	68	0.00	29.847 
23:35	64.3	64.3	64.3	91	61.6	0	2	338	0.00	29.847 
23:40	64.3	64.3	64.3	92	61.9	0	2	338	0.00	29.847 
23:45	64.2	64.2	64.2	92	61.8	0	1	338	0.00	29.834 
23:50	64.2	64.2	64.2	92	61.8	0	4	338	0.00	29.834 
23:55	64.2	64.2	64.2	92	61.8	0	4	270	0.00	29.834 

CoCoRaHS
IN-AL-39
A2 Web Hosting
Creative Commons License
GoDaddy
search engine by freefind advanced

loaded 2018-11-17 18:20:27 • last modified 2010-11-18 10:43:29
Privacy PolicyDisclaimer
• wx.awcolley.com is powered by PmWiki v.2002016 •
• all content (unless otherwise noted) © 2018 A W Colley